Airfield :
LOGIN :

Register | Disclaimer

   EN    FR    IT 

 










Legend :    VFR   Marginal VFR   IFR   Intensive IFR   Very Intensive IFR
Visi :
Ceiling :
>= 8 km
>= 3000ft
5 to 8 km
1000 to 3000 ft
1500m to 5 km
500 to 1000 ft
800 to 1500m
200 to 500 ft
< 800m
< 200 ft
Symbols :   Thunderstorms  Fog  Heavy snow  Heavy precipitations  Wind > 20 kt
SIGMETs :     Misc.  Thunderstorms  Icing  Turbulence  Mountain Waves  Volcanic Ashes







- Airport Elevation : 2265 ft
- IATA code : CZL


DABC - Mohamed Boudiaf Int. Constantine

CURRENT METAR :
  • 212230Z 18017KT 160V220 9999 SCT026TCU SCT100 BKN200 24/13 Q1018

EXPIRED METARs :
  • 212200Z 20006KT 9999 SCT026TCU SCT100 BKN200 24/12 Q1018
  • 212130Z 18016KT 170V260 9999 TS SCT023TCU SCT026CB BKN030 25/12 Q1019
  • 212100Z 21014G30KT 170V260 9999 -TSRA SCT023TCU SCT026CB BKN030 24/12 Q1021
  • 212030Z 25010KT 200V300 9999 TS SCT023TCU SCT026CB BKN030 23/16 Q1022

TAF AMD TAF DABC
Valid from the 21 at 18:00 until the 22 at 18:00 UTC


211939Z 2118/2218 26008KT 9999 FEW023 SCT100
TEMPO 2118/2124 30015G25KT 4000 -TSRA FEW026CB
BECMG 2208/2211 33014KT
No reported NOTAMs for that airfield.



MET'MAP, your aeronautical weather chart ! - Copyright ORBIFLY December 2007 - Disclaimer

ORBIFLY MET'MAP TEAM :

Programming & Development : Alexandra Zaïnal
Concept & Development : Baudouin d'Aumeries
Co-Development & Prog : Marc-Olivier Méhu
Technical & hardware support : Manuel Goepfert

Contact : metmap@orbifly.com




SOURCES & CREDITS :

   NOAA